sensor_id;sensor_type;location;lat;lon;timestamp;pressure;altitude;pressure_sealevel;temperature;humidity
57048;BME280;42934;54.294;18.598;2024-03-23T00:54:10;99786.06;;;7.75;91.82
57048;BME280;42934;54.294;18.598;2024-03-23T00:56:38;99784.50;;;7.69;91.64
57048;BME280;42934;54.294;18.598;2024-03-23T00:59:05;99788.75;;;7.73;92.04
57048;BME280;42934;54.294;18.598;2024-03-23T01:01:33;99780.91;;;7.73;91.49
57048;BME280;42934;54.294;18.598;2024-03-23T01:04:01;99786.91;;;7.76;91.65
57048;BME280;42934;54.294;18.598;2024-03-23T01:06:30;99793.84;;;7.77;91.44
57048;BME280;42934;54.294;18.598;2024-03-23T01:08:58;99787.84;;;7.73;91.88
57048;BME280;42934;54.294;18.598;2024-03-23T01:11:28;99789.59;;;7.74;91.44
57048;BME280;42934;54.294;18.598;2024-03-23T01:13:55;99796.75;;;7.67;91.66
57048;BME280;42934;54.294;18.598;2024-03-23T01:16:23;99790.44;;;7.74;91.51
57048;BME280;42934;54.294;18.598;2024-03-23T01:18:51;99795.81;;;7.70;91.48
57048;BME280;42934;54.294;18.598;2024-03-23T01:21:19;99799.22;;;7.72;91.56
57048;BME280;42934;54.294;18.598;2024-03-23T01:23:46;99791.44;;;7.70;91.52
57048;BME280;42934;54.294;18.598;2024-03-23T01:26:14;99798.53;;;7.67;91.48
57048;BME280;42934;54.294;18.598;2024-03-23T01:28:43;99791.75;;;7.61;91.81
57048;BME280;42934;54.294;18.598;2024-03-23T01:31:11;99789.03;;;7.64;91.75
57048;BME280;42934;54.294;18.598;2024-03-23T01:33:39;99784.72;;;7.63;91.92
57048;BME280;42934;54.294;18.598;2024-03-23T01:36:07;99789.09;;;7.63;91.60
57048;BME280;42934;54.294;18.598;2024-03-23T01:38:35;99789.13;;;7.61;91.78
57048;BME280;42934;54.294;18.598;2024-03-23T01:41:03;99798.69;;;7.62;92.12
57048;BME280;42934;54.294;18.598;2024-03-23T01:43:31;99798.84;;;7.58;91.57
57048;BME280;42934;54.294;18.598;2024-03-23T01:46:00;99795.28;;;7.60;91.69
57048;BME280;42934;54.294;18.598;2024-03-23T01:48:27;99799.66;;;7.60;91.64
57048;BME280;42934;54.294;18.598;2024-03-23T01:50:56;99804.97;;;7.57;91.63
57048;BME280;42934;54.294;18.598;2024-03-23T01:53:23;99803.44;;;7.51;92.05
57048;BME280;42934;54.294;18.598;2024-03-23T01:55:52;99795.38;;;7.57;91.96
57048;BME280;42934;54.294;18.598;2024-03-23T01:58:19;99796.34;;;7.55;91.81
57048;BME280;42934;54.294;18.598;2024-03-23T02:00:47;99797.19;;;7.55;92.10
57048;BME280;42934;54.294;18.598;2024-03-23T02:03:25;99794.56;;;7.55;91.70
57048;BME280;42934;54.294;18.598;2024-03-23T02:05:54;99788.56;;;7.53;92.01
57048;BME280;42934;54.294;18.598;2024-03-23T02:08:23;99779.84;;;7.53;92.05
57048;BME280;42934;54.294;18.598;2024-03-23T02:10:52;99778.97;;;7.54;91.74
57048;BME280;42934;54.294;18.598;2024-03-23T02:13:19;99780.72;;;7.53;91.47
57048;BME280;42934;54.294;18.598;2024-03-23T02:15:48;99771.97;;;7.54;91.53
57048;BME280;42934;54.294;18.598;2024-03-23T02:18:15;99780.78;;;7.51;91.58
57048;BME280;42934;54.294;18.598;2024-03-23T02:20:45;99772.19;;;7.48;91.64
57048;BME280;42934;54.294;18.598;2024-03-23T02:23:16;99768.66;;;7.49;91.91
57048;BME280;42934;54.294;18.598;2024-03-23T02:25:46;99768.66;;;7.49;91.65
57048;BME280;42934;54.294;18.598;2024-03-23T02:28:13;99765.19;;;7.48;91.82
57048;BME280;42934;54.294;18.598;2024-03-23T02:30:42;99765.19;;;7.48;91.86
57048;BME280;42934;54.294;18.598;2024-03-23T02:33:09;99751.28;;;7.48;91.49
57048;BME280;42934;54.294;18.598;2024-03-23T02:35:38;99753.91;;;7.48;91.92
57048;BME280;42934;54.294;18.598;2024-03-23T02:38:05;99746.06;;;7.48;91.42
57048;BME280;42934;54.294;18.598;2024-03-23T02:40:35;99735.56;;;7.49;91.45
57048;BME280;42934;54.294;18.598;2024-03-23T02:43:04;99726.03;;;7.48;91.47
57048;BME280;42934;54.294;18.598;2024-03-23T02:45:31;99725.09;;;7.49;91.89
57048;BME280;42934;54.294;18.598;2024-03-23T02:47:59;99724.25;;;7.49;91.46
57048;BME280;42934;54.294;18.598;2024-03-23T02:50:27;99726.84;;;7.50;91.43
57048;BME280;42934;54.294;18.598;2024-03-23T02:52:55;99726.97;;;7.46;91.43
57048;BME280;42934;54.294;18.598;2024-03-23T02:55:22;99721.75;;;7.46;91.41
57048;BME280;42934;54.294;18.598;2024-03-23T02:57:52;99716.53;;;7.46;91.52
57048;BME280;42934;54.294;18.598;2024-03-23T03:00:19;99713.00;;;7.47;91.82
57048;BME280;42934;54.294;18.598;2024-03-23T03:02:47;99711.31;;;7.46;91.81
57048;BME280;42934;54.294;18.598;2024-03-23T03:05:15;99710.50;;;7.44;91.60
57048;BME280;42934;54.294;18.598;2024-03-23T03:07:43;99714.84;;;7.45;91.53
57048;BME280;42934;54.294;18.598;2024-03-23T03:10:10;99726.28;;;7.41;91.32
57048;BME280;42934;54.294;18.598;2024-03-23T03:12:38;99731.78;;;7.33;91.80
57048;BME280;42934;54.294;18.598;2024-03-23T03:15:09;99723.13;;;7.31;91.25
57048;BME280;42934;54.294;18.598;2024-03-23T03:17:37;99711.22;;;7.24;92.13
57048;BME280;42934;54.294;18.598;2024-03-23T03:20:05;99710.16;;;7.30;91.68
57048;BME280;42934;54.294;18.598;2024-03-23T03:22:33;99705.91;;;7.25;91.77
57048;BME280;42934;54.294;18.598;2024-03-23T03:25:01;99711.13;;;7.25;91.95
57048;BME280;42934;54.294;18.598;2024-03-23T03:27:29;99703.31;;;7.25;92.21
57048;BME280;42934;54.294;18.598;2024-03-23T03:29:56;99701.53;;;7.26;92.19
57048;BME280;42934;54.294;18.598;2024-03-23T03:32:26;99703.31;;;7.25;91.54
57048;BME280;42934;54.294;18.598;2024-03-23T03:34:53;99710.25;;;7.26;91.81
57048;BME280;42934;54.294;18.598;2024-03-23T03:37:21;99695.47;;;7.25;92.10
57048;BME280;42934;54.294;18.598;2024-03-23T03:39:49;99699.81;;;7.26;91.98
57048;BME280;42934;54.294;18.598;2024-03-23T03:42:17;99704.00;;;7.31;91.85
57048;BME280;42934;54.294;18.598;2024-03-23T03:44:44;99699.75;;;7.28;91.64
57048;BME280;42934;54.294;18.598;2024-03-23T03:47:12;99696.19;;;7.31;91.90
57048;BME280;42934;54.294;18.598;2024-03-23T03:49:41;99674.66;;;7.24;92.20
57048;BME280;42934;54.294;18.598;2024-03-23T03:52:09;99685.66;;;7.32;91.38
57048;BME280;42934;54.294;18.598;2024-03-23T03:54:36;99687.31;;;7.35;91.82
57048;BME280;42934;54.294;18.598;2024-03-23T03:57:05;99690.84;;;7.34;92.00
57048;BME280;42934;54.294;18.598;2024-03-23T03:59:32;99691.69;;;7.34;91.59
57048;BME280;42934;54.294;18.598;2024-03-23T04:02:01;99698.78;;;7.31;91.39
57048;BME280;42934;54.294;18.598;2024-03-23T04:04:28;99699.84;;;7.25;91.75
57048;BME280;42934;54.294;18.598;2024-03-23T04:07:00;99697.25;;;7.25;91.99
57048;BME280;42934;54.294;18.598;2024-03-23T04:09:28;99694.66;;;7.23;91.87
57048;BME280;42934;54.294;18.598;2024-03-23T04:11:57;99693.72;;;7.26;91.95
57048;BME280;42934;54.294;18.598;2024-03-23T04:14:24;99683.28;;;7.26;91.96
57048;BME280;42934;54.294;18.598;2024-03-23T04:16:52;99669.44;;;7.24;91.92
57048;BME280;42934;54.294;18.598;2024-03-23T04:19:20;99667.78;;;7.21;92.58
57048;BME280;42934;54.294;18.598;2024-03-23T04:21:48;99669.47;;;7.22;92.56
57048;BME280;42934;54.294;18.598;2024-03-23T04:24:18;99670.31;;;7.23;91.70
57048;BME280;42934;54.294;18.598;2024-03-23T04:26:47;99672.81;;;7.26;92.04
57048;BME280;42934;54.294;18.598;2024-03-23T04:29:16;99671.16;;;7.23;91.99
57048;BME280;42934;54.294;18.598;2024-03-23T04:31:43;99666.81;;;7.24;91.80
57048;BME280;42934;54.294;18.598;2024-03-23T04:34:11;99672.91;;;7.24;91.95
57048;BME280;42934;54.294;18.598;2024-03-23T04:36:38;99666.81;;;7.24;92.02
57048;BME280;42934;54.294;18.598;2024-03-23T04:39:07;99663.41;;;7.22;92.32
57048;BME280;42934;54.294;18.598;2024-03-23T04:41:37;99667.72;;;7.23;92.18
57048;BME280;42934;54.294;18.598;2024-03-23T04:44:06;99662.50;;;7.23;91.98
57048;BME280;42934;54.294;18.598;2024-03-23T04:46:34;99658.91;;;7.25;92.35
57048;BME280;42934;54.294;18.598;2024-03-23T04:49:02;99648.44;;;7.27;91.68
57048;BME280;42934;54.294;18.598;2024-03-23T04:51:36;99653.69;;;7.25;92.05
57048;BME280;42934;54.294;18.598;2024-03-23T04:54:05;99654.84;;;7.18;92.13
57048;BME280;42934;54.294;18.598;2024-03-23T04:56:33;99655.72;;;7.17;92.11
57048;BME280;42934;54.294;18.598;2024-03-23T04:59:02;99653.06;;;7.19;92.46
57048;BME280;42934;54.294;18.598;2024-03-23T05:01:32;99653.00;;;7.20;92.07
57048;BME280;42934;54.294;18.598;2024-03-23T05:04:03;99654.75;;;7.20;92.38
57048;BME280;42934;54.294;18.598;2024-03-23T05:06:32;99650.47;;;7.19;91.55
57048;BME280;42934;54.294;18.598;2024-03-23T05:08:59;99659.88;;;7.23;91.81
57048;BME280;42934;54.294;18.598;2024-03-23T05:11:28;99658.41;;;7.16;92.03
57048;BME280;42934;54.294;18.598;2024-03-23T05:13:55;99649.97;;;7.08;92.19
57048;BME280;42934;54.294;18.598;2024-03-23T05:16:25;99647.22;;;7.12;92.15
57048;BME280;42934;54.294;18.598;2024-03-23T05:18:53;99645.56;;;7.10;92.20
57048;BME280;42934;54.294;18.598;2024-03-23T05:21:21;99635.22;;;7.07;92.62
57048;BME280;42934;54.294;18.598;2024-03-23T05:23:49;99645.50;;;7.11;92.45
57048;BME280;42934;54.294;18.598;2024-03-23T05:26:18;99633.34;;;7.10;92.14
57048;BME280;42934;54.294;18.598;2024-03-23T05:28:45;99634.19;;;7.11;92.33
57048;BME280;42934;54.294;18.598;2024-03-23T05:31:23;99628.06;;;7.12;92.88
57048;BME280;42934;54.294;18.598;2024-03-23T05:33:51;99631.47;;;7.14;92.42
57048;BME280;42934;54.294;18.598;2024-03-23T05:36:19;99635.06;;;7.11;92.20
57048;BME280;42934;54.294;18.598;2024-03-23T05:38:46;99632.31;;;7.14;92.46
57048;BME280;42934;54.294;18.598;2024-03-23T05:41:14;99629.81;;;7.11;92.49
57048;BME280;42934;54.294;18.598;2024-03-23T05:43:42;99626.22;;;7.15;92.82
57048;BME280;42934;54.294;18.598;2024-03-23T05:46:10;99624.50;;;7.14;92.15
57048;BME280;42934;54.294;18.598;2024-03-23T05:48:39;99634.78;;;7.19;92.32
57048;BME280;42934;54.294;18.598;2024-03-23T05:51:07;99625.38;;;7.15;92.11
57048;BME280;42934;54.294;18.598;2024-03-23T05:53:35;99612.50;;;7.09;92.38
57048;BME280;42934;54.294;18.598;2024-03-23T05:56:04;99607.16;;;7.13;92.81
57048;BME280;42934;54.294;18.598;2024-03-23T05:58:32;99607.03;;;7.16;92.60
57048;BME280;42934;54.294;18.598;2024-03-23T06:01:01;99604.56;;;7.12;92.75
57048;BME280;42934;54.294;18.598;2024-03-23T06:03:29;99600.22;;;7.12;93.09
57048;BME280;42934;54.294;18.598;2024-03-23T06:05:58;99601.91;;;7.13;92.85
57048;BME280;42934;54.294;18.598;2024-03-23T06:08:26;99601.06;;;7.13;92.39
57048;BME280;42934;54.294;18.598;2024-03-23T06:10:54;99593.34;;;7.10;92.69
57048;BME280;42934;54.294;18.598;2024-03-23T06:13:21;99591.59;;;7.10;93.13
57048;BME280;42934;54.294;18.598;2024-03-23T06:15:56;99595.84;;;7.13;92.83
57048;BME280;42934;54.294;18.598;2024-03-23T06:18:24;99585.84;;;7.00;92.81
57048;BME280;42934;54.294;18.598;2024-03-23T06:20:52;99582.94;;;7.08;92.66
57048;BME280;42934;54.294;18.598;2024-03-23T06:23:21;99578.66;;;7.07;92.63
57048;BME280;42934;54.294;18.598;2024-03-23T06:25:49;99578.97;;;6.98;92.41
57048;BME280;42934;54.294;18.598;2024-03-23T06:28:16;99584.94;;;7.01;92.37
57048;BME280;42934;54.294;18.598;2024-03-23T06:30:45;99594.69;;;6.96;92.66
57048;BME280;42934;54.294;18.598;2024-03-23T06:33:12;99597.38;;;6.93;92.88
57048;BME280;42934;54.294;18.598;2024-03-23T06:35:41;99596.53;;;6.93;92.78
57048;BME280;42934;54.294;18.598;2024-03-23T06:38:08;99594.69;;;6.96;92.59
57048;BME280;42934;54.294;18.598;2024-03-23T06:40:38;99592.28;;;6.90;93.39
57048;BME280;42934;54.294;18.598;2024-03-23T06:43:05;99584.41;;;6.92;93.00
57048;BME280;42934;54.294;18.598;2024-03-23T06:45:33;99587.03;;;6.92;93.20
57048;BME280;42934;54.294;18.598;2024-03-23T06:48:01;99585.31;;;6.91;92.82
57048;BME280;42934;54.294;18.598;2024-03-23T06:50:30;99586.84;;;6.96;93.18
57048;BME280;42934;54.294;18.598;2024-03-23T06:52:57;99592.19;;;6.93;92.97
57048;BME280;42934;54.294;18.598;2024-03-23T06:55:25;99578.34;;;6.91;93.36
57048;BME280;42934;54.294;18.598;2024-03-23T06:57:55;99584.19;;;6.98;93.20
57048;BME280;42934;54.294;18.598;2024-03-23T07:00:23;99578.75;;;7.04;93.33
57048;BME280;42934;54.294;18.598;2024-03-23T07:02:52;99586.31;;;7.12;93.39
57048;BME280;42934;54.294;18.598;2024-03-23T07:05:20;99586.41;;;7.09;92.82
57048;BME280;42934;54.294;18.598;2024-03-23T07:07:48;99594.34;;;7.05;92.78
57048;BME280;42934;54.294;18.598;2024-03-23T07:10:16;99597.75;;;7.08;92.17
57048;BME280;42934;54.294;18.598;2024-03-23T07:12:43;99599.56;;;7.05;93.46
57048;BME280;42934;54.294;18.598;2024-03-23T07:15:14;99594.19;;;7.10;93.28
57048;BME280;42934;54.294;18.598;2024-03-23T07:17:41;99598.56;;;7.10;93.05
57048;BME280;42934;54.294;18.598;2024-03-23T07:20:10;99603.09;;;7.04;93.60
57048;BME280;42934;54.294;18.598;2024-03-23T07:22:38;99607.28;;;7.09;93.16
57048;BME280;42934;54.294;18.598;2024-03-23T07:25:07;99609.91;;;7.09;92.98
57048;BME280;42934;54.294;18.598;2024-03-23T07:27:34;99603.00;;;7.08;93.30
57048;BME280;42934;54.294;18.598;2024-03-23T07:30:03;99600.44;;;7.06;93.00
57048;BME280;42934;54.294;18.598;2024-03-23T07:32:31;99601.44;;;7.02;93.67
57048;BME280;42934;54.294;18.598;2024-03-23T07:35:00;99598.03;;;7.00;93.58
57048;BME280;42934;54.294;18.598;2024-03-23T07:37:27;99595.97;;;7.10;93.51
57048;BME280;42934;54.294;18.598;2024-03-23T07:39:55;99598.41;;;7.14;92.77
57048;BME280;42934;54.294;18.598;2024-03-23T07:42:23;99610.59;;;7.14;93.39
57048;BME280;42934;54.294;18.598;2024-03-23T07:44:53;99608.16;;;7.09;93.28
57048;BME280;42934;54.294;18.598;2024-03-23T07:47:22;99602.63;;;7.18;93.63
57048;BME280;42934;54.294;18.598;2024-03-23T07:49:52;99602.44;;;7.23;93.21
57048;BME280;42934;54.294;18.598;2024-03-23T07:52:19;99598.06;;;7.23;92.53
57048;BME280;42934;54.294;18.598;2024-03-23T07:54:48;99594.56;;;7.24;92.90
57048;BME280;42934;54.294;18.598;2024-03-23T07:57:15;99589.50;;;7.20;92.45
57048;BME280;42934;54.294;18.598;2024-03-23T07:59:43;99585.56;;;7.08;92.38
57048;BME280;42934;54.294;18.598;2024-03-23T08:02:11;99591.47;;;7.13;92.06
57048;BME280;42934;54.294;18.598;2024-03-23T08:04:39;99589.13;;;7.05;92.33
57048;BME280;42934;54.294;18.598;2024-03-23T08:07:09;99588.91;;;7.12;92.72
57048;BME280;42934;54.294;18.598;2024-03-23T08:09:36;99590.03;;;7.04;92.37
57048;BME280;42934;54.294;18.598;2024-03-23T08:12:05;99579.75;;;7.00;92.28
57048;BME280;42934;54.294;18.598;2024-03-23T08:14:32;99583.06;;;7.05;92.44
57048;BME280;42934;54.294;18.598;2024-03-23T08:17:00;99579.56;;;7.06;91.25
57048;BME280;42934;54.294;18.598;2024-03-23T08:19:27;99574.28;;;7.08;91.33
57048;BME280;42934;54.294;18.598;2024-03-23T08:21:56;99572.84;;;6.99;91.51
57048;BME280;42934;54.294;18.598;2024-03-23T08:24:24;99577.22;;;6.98;91.43
57048;BME280;42934;54.294;18.598;2024-03-23T08:26:55;99578.13;;;6.97;91.58
57048;BME280;42934;54.294;18.598;2024-03-23T08:29:22;99568.34;;;7.02;91.32
57048;BME280;42934;54.294;18.598;2024-03-23T08:31:50;99552.78;;;7.01;91.39
57048;BME280;42934;54.294;18.598;2024-03-23T08:34:17;99559.78;;;6.99;91.42
57048;BME280;42934;54.294;18.598;2024-03-23T08:36:46;99547.81;;;6.93;91.21
57048;BME280;42934;54.294;18.598;2024-03-23T08:39:13;99548.53;;;6.97;91.33
57048;BME280;42934;54.294;18.598;2024-03-23T08:41:43;99551.03;;;7.00;91.39
57048;BME280;42934;54.294;18.598;2024-03-23T08:44:13;99560.63;;;6.99;91.08
57048;BME280;42934;54.294;18.598;2024-03-23T08:46:41;99549.34;;;6.99;90.29
57048;BME280;42934;54.294;18.598;2024-03-23T08:49:08;99551.00;;;7.01;90.42
57048;BME280;42934;54.294;18.598;2024-03-23T08:51:36;99537.97;;;7.01;90.33
57048;BME280;42934;54.294;18.598;2024-03-23T08:54:04;99531.28;;;6.94;89.35
57048;BME280;42934;54.294;18.598;2024-03-23T08:56:32;99528.84;;;6.88;87.44
57048;BME280;42934;54.294;18.598;2024-03-23T08:59:01;99525.78;;;6.77;85.29
57048;BME280;42934;54.294;18.598;2024-03-23T09:01:29;99526.63;;;6.77;84.58
57048;BME280;42934;54.294;18.598;2024-03-23T09:03:56;99532.47;;;6.84;84.34
57048;BME280;42934;54.294;18.598;2024-03-23T09:06:24;99530.69;;;6.86;84.81
57048;BME280;42934;54.294;18.598;2024-03-23T09:08:52;99510.13;;;6.77;86.15
57048;BME280;42934;54.294;18.598;2024-03-23T09:11:20;99531.47;;;6.88;87.33
57048;BME280;42934;54.294;18.598;2024-03-23T09:13:47;99524.22;;;6.96;87.41
57048;BME280;42934;54.294;18.598;2024-03-23T09:16:17;99528.81;;;6.90;88.58
57048;BME280;42934;54.294;18.598;2024-03-23T09:18:45;99520.66;;;6.99;88.44
57048;BME280;42934;54.294;18.598;2024-03-23T09:21:13;99516.97;;;7.04;88.42
57048;BME280;42934;54.294;18.598;2024-03-23T09:23:42;99505.78;;;7.01;88.88
57048;BME280;42934;54.294;18.598;2024-03-23T09:26:11;99501.31;;;7.04;89.06
57048;BME280;42934;54.294;18.598;2024-03-23T09:28:38;99504.00;;;7.03;89.50
57048;BME280;42934;54.294;18.598;2024-03-23T09:31:08;99504.38;;;7.16;89.17
57048;BME280;42934;54.294;18.598;2024-03-23T09:33:37;99502.25;;;7.02;88.56
57048;BME280;42934;54.294;18.598;2024-03-23T09:36:06;99489.19;;;7.03;88.81
57048;BME280;42934;54.294;18.598;2024-03-23T09:38:33;99493.22;;;7.12;88.33
57048;BME280;42934;54.294;18.598;2024-03-23T09:41:07;99488.16;;;7.08;87.61
57048;BME280;42934;54.294;18.598;2024-03-23T09:43:35;99475.47;;;6.97;87.03
57048;BME280;42934;54.294;18.598;2024-03-23T09:46:04;99468.00;;;7.11;86.91
57048;BME280;42934;54.294;18.598;2024-03-23T09:48:32;99463.69;;;7.10;86.55
57048;BME280;42934;54.294;18.598;2024-03-23T09:51:03;99473.06;;;7.16;86.39
57048;BME280;42934;54.294;18.598;2024-03-23T09:53:31;99476.34;;;7.21;86.28
57048;BME280;42934;54.294;18.598;2024-03-23T09:55:59;99471.97;;;7.21;85.72
57048;BME280;42934;54.294;18.598;2024-03-23T09:58:27;99480.03;;;7.15;85.66
57048;BME280;42934;54.294;18.598;2024-03-23T10:00:55;99473.06;;;7.16;85.65
57048;BME280;42934;54.294;18.598;2024-03-23T10:03:22;99478.28;;;7.16;85.01
57048;BME280;42934;54.294;18.598;2024-03-23T10:06:02;99479.97;;;7.17;85.53
57048;BME280;42934;54.294;18.598;2024-03-23T10:08:30;99479.94;;;7.18;85.55
57048;BME280;42934;54.294;18.598;2024-03-23T10:11:13;99482.47;;;7.20;84.57
57048;BME280;42934;54.294;18.598;2024-03-23T10:13:43;99483.38;;;7.19;84.40
57048;BME280;42934;54.294;18.598;2024-03-23T10:16:20;99476.00;;;7.07;82.66
57048;BME280;42934;54.294;18.598;2024-03-23T10:18:48;99485.91;;;7.20;83.65
57048;BME280;42934;54.294;18.598;2024-03-23T10:21:18;99481.63;;;7.19;83.55
57048;BME280;42934;54.294;18.598;2024-03-23T10:23:46;99484.47;;;7.13;83.13
57048;BME280;42934;54.294;18.598;2024-03-23T10:26:21;99479.56;;;7.27;83.38
57048;BME280;42934;54.294;18.598;2024-03-23T10:28:55;99475.19;;;7.28;84.16
57048;BME280;42934;54.294;18.598;2024-03-23T10:31:28;99468.59;;;7.41;84.29
57048;BME280;42934;54.294;18.598;2024-03-23T10:33:55;99448.72;;;7.37;84.82
57048;BME280;42934;54.294;18.598;2024-03-23T10:36:25;99454.38;;;7.48;84.46
57048;BME280;42934;54.294;18.598;2024-03-23T10:38:53;99447.94;;;7.35;84.33
57048;BME280;42934;54.294;18.598;2024-03-23T10:41:22;99439.00;;;7.41;85.20
57048;BME280;42934;54.294;18.598;2024-03-23T10:43:50;99432.56;;;7.49;85.10
57048;BME280;42934;54.294;18.598;2024-03-23T10:46:18;99435.25;;;7.48;84.79
57048;BME280;42934;54.294;18.598;2024-03-23T10:48:45;99423.47;;;7.38;85.36
57048;BME280;42934;54.294;18.598;2024-03-23T10:51:14;99423.72;;;7.54;85.12
57048;BME280;42934;54.294;18.598;2024-03-23T10:53:44;99421.03;;;7.55;84.93
57048;BME280;42934;54.294;18.598;2024-03-23T10:56:13;99409.69;;;7.56;85.20
57048;BME280;42934;54.294;18.598;2024-03-23T10:58:43;99421.13;;;7.54;85.19
57048;BME280;42934;54.294;18.598;2024-03-23T11:01:13;99417.41;;;7.59;85.20
57048;BME280;42934;54.294;18.598;2024-03-23T11:03:45;99412.91;;;7.63;84.80
57048;BME280;42934;54.294;18.598;2024-03-23T11:06:35;99418.16;;;7.61;84.45
57048;BME280;42934;54.294;18.598;2024-03-23T11:09:08;99415.81;;;7.55;84.05
57048;BME280;42934;54.294;18.598;2024-03-23T11:11:56;99413.16;;;7.57;84.15
57048;BME280;42934;54.294;18.598;2024-03-23T11:14:24;99416.47;;;7.60;83.79
57048;BME280;42934;54.294;18.598;2024-03-23T11:17:09;99403.66;;;7.54;82.94
57048;BME280;42934;54.294;18.598;2024-03-23T11:19:37;99404.38;;;7.58;82.21
57048;BME280;42934;54.294;18.598;2024-03-23T11:22:07;99408.47;;;7.65;83.13
57048;BME280;42934;54.294;18.598;2024-03-23T11:24:36;99400.56;;;7.66;82.43
57048;BME280;42934;54.294;18.598;2024-03-23T11:27:16;99394.38;;;7.69;82.58
57048;BME280;42934;54.294;18.598;2024-03-23T11:29:43;99401.22;;;7.71;83.02
57048;BME280;42934;54.294;18.598;2024-03-23T11:32:12;99410.75;;;7.72;83.17
57048;BME280;42934;54.294;18.598;2024-03-23T11:34:40;99399.59;;;7.69;82.57
57048;BME280;42934;54.294;18.598;2024-03-23T11:37:08;99395.19;;;7.69;82.90
57048;BME280;42934;54.294;18.598;2024-03-23T11:39:37;99392.00;;;7.63;83.31
57048;BME280;42934;54.294;18.598;2024-03-23T11:42:05;99401.28;;;7.70;83.83
57048;BME280;42934;54.294;18.598;2024-03-23T11:44:33;99396.81;;;7.73;83.78
57048;BME280;42934;54.294;18.598;2024-03-23T11:47:08;99393.19;;;7.76;83.89
57048;BME280;42934;54.294;18.598;2024-03-23T11:49:36;99391.63;;;7.72;83.91
57048;BME280;42934;54.294;18.598;2024-03-23T11:52:07;99391.78;;;7.67;84.48
57048;BME280;42934;54.294;18.598;2024-03-23T11:54:36;99388.97;;;7.73;84.16
57048;BME280;42934;54.294;18.598;2024-03-23T11:57:08;99388.97;;;7.73;84.73
57048;BME280;42934;54.294;18.598;2024-03-23T11:59:37;99398.50;;;7.74;84.48
57048;BME280;42934;54.294;18.598;2024-03-23T12:02:07;99380.50;;;7.67;84.95
57048;BME280;42934;54.294;18.598;2024-03-23T12:04:35;99370.91;;;7.67;85.35
57048;BME280;42934;54.294;18.598;2024-03-23T12:07:14;99360.41;;;7.69;85.56
57048;BME280;42934;54.294;18.598;2024-03-23T12:09:43;99357.84;;;7.67;85.58
57048;BME280;42934;54.294;18.598;2024-03-23T12:12:14;99370.25;;;7.62;86.82
57048;BME280;42934;54.294;18.598;2024-03-23T12:14:43;99358.84;;;7.65;86.86
57048;BME280;42934;54.294;18.598;2024-03-23T12:17:12;99362.09;;;7.70;86.05
57048;BME280;42934;54.294;18.598;2024-03-23T12:19:40;99356.72;;;7.73;86.07
57048;BME280;42934;54.294;18.598;2024-03-23T12:22:09;99352.31;;;7.75;85.83
57048;BME280;42934;54.294;18.598;2024-03-23T12:24:37;99344.25;;;7.59;86.09
57048;BME280;42934;54.294;18.598;2024-03-23T12:27:13;99341.84;;;7.75;85.85
57048;BME280;42934;54.294;18.598;2024-03-23T12:29:42;99339.53;;;7.67;86.44
57048;BME280;42934;54.294;18.598;2024-03-23T12:32:13;99341.25;;;7.48;86.60
57048;BME280;42934;54.294;18.598;2024-03-23T12:34:41;99332.84;;;7.62;86.36
57048;BME280;42934;54.294;18.598;2024-03-23T12:37:09;99325.59;;;7.68;86.07
57048;BME280;42934;54.294;18.598;2024-03-23T12:39:37;99323.75;;;7.70;85.78
57048;BME280;42934;54.294;18.598;2024-03-23T12:42:05;99321.38;;;7.64;86.06
57048;BME280;42934;54.294;18.598;2024-03-23T12:44:34;99317.03;;;7.65;86.14
57048;BME280;42934;54.294;18.598;2024-03-23T12:47:03;99321.38;;;7.64;85.63
57048;BME280;42934;54.294;18.598;2024-03-23T12:49:30;99310.34;;;7.58;85.68
57048;BME280;42934;54.294;18.598;2024-03-23T12:51:59;99302.25;;;7.64;86.15
57048;BME280;42934;54.294;18.598;2024-03-23T12:54:26;99302.06;;;7.68;85.78
57048;BME280;42934;54.294;18.598;2024-03-23T12:56:55;99299.50;;;7.67;85.88
57048;BME280;42934;54.294;18.598;2024-03-23T12:59:23;99285.69;;;7.65;85.80
57048;BME280;42934;54.294;18.598;2024-03-23T13:01:52;99291.63;;;7.68;85.79
57048;BME280;42934;54.294;18.598;2024-03-23T13:04:20;99286.41;;;7.68;85.83
57048;BME280;42934;54.294;18.598;2024-03-23T13:06:48;99280.25;;;7.69;86.35
57048;BME280;42934;54.294;18.598;2024-03-23T13:09:16;99291.50;;;7.71;86.06
57048;BME280;42934;54.294;18.598;2024-03-23T13:11:45;99288.94;;;7.70;85.98
57048;BME280;42934;54.294;18.598;2024-03-23T13:14:12;99291.63;;;7.68;85.99
57048;BME280;42934;54.294;18.598;2024-03-23T13:16:44;99289.00;;;7.68;86.61
57048;BME280;42934;54.294;18.598;2024-03-23T13:19:13;99292.38;;;7.70;86.76
57048;BME280;42934;54.294;18.598;2024-03-23T13:21:41;99291.63;;;7.68;86.65
57048;BME280;42934;54.294;18.598;2024-03-23T13:24:09;99302.22;;;7.65;86.25
57048;BME280;42934;54.294;18.598;2024-03-23T13:26:37;99292.72;;;7.63;86.62
57048;BME280;42934;54.294;18.598;2024-03-23T13:29:04;99290.03;;;7.64;86.52
57048;BME280;42934;54.294;18.598;2024-03-23T13:31:33;99284.75;;;7.66;86.40
57048;BME280;42934;54.294;18.598;2024-03-23T13:34:01;99290.84;;;7.66;86.42
57048;BME280;42934;54.294;18.598;2024-03-23T13:36:31;99291.69;;;7.67;86.64
57048;BME280;42934;54.294;18.598;2024-03-23T13:38:58;99292.66;;;7.64;86.33
57048;BME280;42934;54.294;18.598;2024-03-23T13:41:27;99287.69;;;7.58;86.94
57048;BME280;42934;54.294;18.598;2024-03-23T13:43:55;99286.72;;;7.61;86.41
57048;BME280;42934;54.294;18.598;2024-03-23T13:46:23;99280.59;;;7.62;86.44
57048;BME280;42934;54.294;18.598;2024-03-23T13:48:50;99289.47;;;7.58;86.69
57048;BME280;42934;54.294;18.598;2024-03-23T13:51:24;99279.72;;;7.61;86.67
57048;BME280;42934;54.294;18.598;2024-03-23T13:53:54;99279.09;;;7.56;86.54
57048;BME280;42934;54.294;18.598;2024-03-23T13:56:23;99273.59;;;7.42;87.00
57048;BME280;42934;54.294;18.598;2024-03-23T13:58:50;99273.47;;;7.45;87.60
57048;BME280;42934;54.294;18.598;2024-03-23T14:01:18;99265.56;;;7.46;87.47